Terminal Aerodrome Forecast
Issued by NWS

Home | Current Version | Previous Version | Text Only | Print | Product List | Glossary Off
Versions: 1 2 3 4 5 6 7 8 9 10 11 12 13 14 15 16

000
FTUS43 KBIS 230300 AAA
TAFMOT
TAF AMD
KMOT 230303Z 2303/2324 24014KT P6SM BKN100
     FM231000 28016KT P6SM BKN040
     FM231800 27015KT P6SM BKN150=

USA.gov is the U.S. government's official web portal to all federal, state and local government web resources and services.